sensor_id;sensor_type;location;lat;lon;timestamp;P1;P2;P0
56495;PMS5003;42804;55.762;38.084;2023-05-10T00:00:49;125.00;104.00;58.00
56495;PMS5003;42804;55.762;38.084;2023-05-10T00:03:18;132.25;106.00;61.25
56495;PMS5003;42804;55.762;38.084;2023-05-10T00:05:46;132.00;106.50;68.25
56495;PMS5003;42804;55.762;38.084;2023-05-10T00:08:14;105.20;88.00;56.40
56495;PMS5003;42804;55.762;38.084;2023-05-10T00:10:42;95.60;75.40;46.60
56495;PMS5003;42804;55.762;38.084;2023-05-10T00:13:10;95.00;78.20;48.80
56495;PMS5003;42804;55.762;38.084;2023-05-10T00:15:38;86.80;67.40;43.40
56495;PMS5003;42804;55.762;38.084;2023-05-10T00:18:08;83.40;64.00;41.80
56495;PMS5003;42804;55.762;38.084;2023-05-10T00:20:36;88.20;69.00;46.20
56495;PMS5003;42804;55.762;38.084;2023-05-10T00:23:04;84.20;63.60;40.60
56495;PMS5003;42804;55.762;38.084;2023-05-10T00:25:32;82.40;63.60;41.20
56495;PMS5003;42804;55.762;38.084;2023-05-10T00:28:00;82.80;63.20;41.20
56495;PMS5003;42804;55.762;38.084;2023-05-10T00:30:29;86.00;66.80;43.20
56495;PMS5003;42804;55.762;38.084;2023-05-10T00:32:57;80.20;62.00;41.00
56495;PMS5003;42804;55.762;38.084;2023-05-10T00:35:26;81.20;61.40;43.80
56495;PMS5003;42804;55.762;38.084;2023-05-10T00:37:55;82.80;62.00;40.60
56495;PMS5003;42804;55.762;38.084;2023-05-10T00:40:23;79.00;58.40;37.40
56495;PMS5003;42804;55.762;38.084;2023-05-10T00:42:55;73.40;58.40;38.20
56495;PMS5003;42804;55.762;38.084;2023-05-10T00:45:24;77.20;59.20;39.60
56495;PMS5003;42804;55.762;38.084;2023-05-10T00:47:52;73.60;58.20;37.60
56495;PMS5003;42804;55.762;38.084;2023-05-10T00:50:21;74.40;58.80;38.80
56495;PMS5003;42804;55.762;38.084;2023-05-10T00:52:51;69.80;57.80;39.80
56495;PMS5003;42804;55.762;38.084;2023-05-10T00:55:19;68.40;56.60;38.80
56495;PMS5003;42804;55.762;38.084;2023-05-10T00:57:48;75.60;59.60;38.80
56495;PMS5003;42804;55.762;38.084;2023-05-10T01:00:17;50.80;42.20;29.00
56495;PMS5003;42804;55.762;38.084;2023-05-10T01:02:45;49.80;43.20;30.40
56495;PMS5003;42804;55.762;38.084;2023-05-10T01:05:14;48.80;41.20;30.20
56495;PMS5003;42804;55.762;38.084;2023-05-10T01:07:43;63.80;50.60;32.40
56495;PMS5003;42804;55.762;38.084;2023-05-10T01:10:12;68.40;52.00;34.80
56495;PMS5003;42804;55.762;38.084;2023-05-10T01:12:41;73.40;56.60;36.80
56495;PMS5003;42804;55.762;38.084;2023-05-10T01:15:10;64.40;51.20;34.00
56495;PMS5003;42804;55.762;38.084;2023-05-10T01:17:39;61.40;50.00;32.80
56495;PMS5003;42804;55.762;38.084;2023-05-10T01:20:08;69.20;55.00;36.60
56495;PMS5003;42804;55.762;38.084;2023-05-10T01:22:51;72.40;57.00;39.00
56495;PMS5003;42804;55.762;38.084;2023-05-10T01:25:34;72.00;55.40;36.20
56495;PMS5003;42804;55.762;38.084;2023-05-10T01:28:25;54.60;43.60;29.00
56495;PMS5003;42804;55.762;38.084;2023-05-10T01:31:06;63.00;51.00;34.40
56495;PMS5003;42804;55.762;38.084;2023-05-10T01:33:39;44.60;33.80;15.60
56495;PMS5003;42804;55.762;38.084;2023-05-10T01:36:09;66.60;52.40;35.00
56495;PMS5003;42804;55.762;38.084;2023-05-10T01:38:41;73.60;58.40;37.80
56495;PMS5003;42804;55.762;38.084;2023-05-10T01:41:13;50.40;42.60;29.00
56495;PMS5003;42804;55.762;38.084;2023-05-10T01:43:45;43.40;36.40;27.80
56495;PMS5003;42804;55.762;38.084;2023-05-10T01:46:16;50.60;41.40;27.60
56495;PMS5003;42804;55.762;38.084;2023-05-10T01:48:48;51.40;43.80;27.80
56495;PMS5003;42804;55.762;38.084;2023-05-10T01:51:20;46.60;41.40;27.60
56495;PMS5003;42804;55.762;38.084;2023-05-10T01:53:49;48.80;38.40;26.80
56495;PMS5003;42804;55.762;38.084;2023-05-10T01:56:18;48.00;42.00;27.80
56495;PMS5003;42804;55.762;38.084;2023-05-10T01:58:48;55.00;42.20;27.80
56495;PMS5003;42804;55.762;38.084;2023-05-10T02:01:17;52.40;42.40;29.00
56495;PMS5003;42804;55.762;38.084;2023-05-10T02:03:48;48.60;41.80;28.00
56495;PMS5003;42804;55.762;38.084;2023-05-10T02:06:18;47.20;39.80;27.40
56495;PMS5003;42804;55.762;38.084;2023-05-10T02:08:47;37.60;34.40;20.40
56495;PMS5003;42804;55.762;38.084;2023-05-10T02:11:17;54.20;42.00;29.00
56495;PMS5003;42804;55.762;38.084;2023-05-10T02:13:46;59.20;41.60;26.80
56495;PMS5003;42804;55.762;38.084;2023-05-10T02:16:15;58.20;47.60;31.20
56495;PMS5003;42804;55.762;38.084;2023-05-10T02:18:44;60.20;48.40;32.60
56495;PMS5003;42804;55.762;38.084;2023-05-10T02:21:14;59.80;46.20;33.20
56495;PMS5003;42804;55.762;38.084;2023-05-10T02:23:43;51.40;44.00;29.00
56495;PMS5003;42804;55.762;38.084;2023-05-10T02:26:12;48.00;41.20;28.00
56495;PMS5003;42804;55.762;38.084;2023-05-10T02:28:41;58.60;45.00;26.60
56495;PMS5003;42804;55.762;38.084;2023-05-10T02:31:10;55.80;44.60;30.80
56495;PMS5003;42804;55.762;38.084;2023-05-10T02:33:38;51.20;41.80;26.00
56495;PMS5003;42804;55.762;38.084;2023-05-10T02:36:08;50.20;42.60;28.00
56495;PMS5003;42804;55.762;38.084;2023-05-10T02:38:38;51.40;42.40;27.40
56495;PMS5003;42804;55.762;38.084;2023-05-10T02:41:07;62.60;49.80;31.40
56495;PMS5003;42804;55.762;38.084;2023-05-10T02:43:37;64.60;52.00;35.00
56495;PMS5003;42804;55.762;38.084;2023-05-10T02:46:07;60.20;48.40;34.00
56495;PMS5003;42804;55.762;38.084;2023-05-10T02:48:35;58.20;47.60;33.00
56495;PMS5003;42804;55.762;38.084;2023-05-10T02:51:05;60.40;47.40;31.20
56495;PMS5003;42804;55.762;38.084;2023-05-10T02:53:35;53.80;44.40;30.00
56495;PMS5003;42804;55.762;38.084;2023-05-10T02:56:13;49.20;40.80;28.00
56495;PMS5003;42804;55.762;38.084;2023-05-10T02:58:42;56.80;45.60;28.20
56495;PMS5003;42804;55.762;38.084;2023-05-10T03:01:10;50.60;43.80;29.60
56495;PMS5003;42804;55.762;38.084;2023-05-10T03:03:38;55.20;45.80;31.00
56495;PMS5003;42804;55.762;38.084;2023-05-10T03:06:06;52.40;42.40;28.40
56495;PMS5003;42804;55.762;38.084;2023-05-10T03:08:35;63.80;45.80;30.80
56495;PMS5003;42804;55.762;38.084;2023-05-10T03:11:12;59.60;47.80;30.20
56495;PMS5003;42804;55.762;38.084;2023-05-10T03:13:48;63.80;49.40;30.20
56495;PMS5003;42804;55.762;38.084;2023-05-10T03:16:22;59.80;50.00;33.60
56495;PMS5003;42804;55.762;38.084;2023-05-10T03:18:54;66.40;51.80;35.40
56495;PMS5003;42804;55.762;38.084;2023-05-10T03:21:24;72.00;55.80;35.80
56495;PMS5003;42804;55.762;38.084;2023-05-10T03:23:58;55.20;46.40;31.20
56495;PMS5003;42804;55.762;38.084;2023-05-10T03:26:28;61.00;49.00;33.40
56495;PMS5003;42804;55.762;38.084;2023-05-10T03:29:04;64.60;52.00;34.40
56495;PMS5003;42804;55.762;38.084;2023-05-10T03:31:34;60.20;48.60;33.80
56495;PMS5003;42804;55.762;38.084;2023-05-10T03:34:02;63.20;49.80;33.60
56495;PMS5003;42804;55.762;38.084;2023-05-10T03:36:30;61.60;50.00;33.20
56495;PMS5003;42804;55.762;38.084;2023-05-10T03:38:58;63.00;50.60;32.80
56495;PMS5003;42804;55.762;38.084;2023-05-10T03:41:28;48.60;39.80;27.00
56495;PMS5003;42804;55.762;38.084;2023-05-10T03:44:15;63.00;50.00;33.80
56495;PMS5003;42804;55.762;38.084;2023-05-10T03:46:43;54.60;42.00;29.20
56495;PMS5003;42804;55.762;38.084;2023-05-10T03:49:11;46.80;40.00;28.00
56495;PMS5003;42804;55.762;38.084;2023-05-10T03:51:40;50.80;40.80;26.60
56495;PMS5003;42804;55.762;38.084;2023-05-10T03:54:08;40.80;37.20;25.60
56495;PMS5003;42804;55.762;38.084;2023-05-10T03:56:38;52.20;44.00;29.00
56495;PMS5003;42804;55.762;38.084;2023-05-10T03:59:06;55.20;44.60;28.40
56495;PMS5003;42804;55.762;38.084;2023-05-10T04:01:35;55.40;44.20;31.20
56495;PMS5003;42804;55.762;38.084;2023-05-10T04:04:03;57.80;47.80;31.80
56495;PMS5003;42804;55.762;38.084;2023-05-10T04:06:31;48.40;41.20;27.20
56495;PMS5003;42804;55.762;38.084;2023-05-10T04:08:59;49.60;39.20;26.00
56495;PMS5003;42804;55.762;38.084;2023-05-10T04:11:30;48.40;41.00;27.40
56495;PMS5003;42804;55.762;38.084;2023-05-10T04:14:00;54.60;43.80;28.40
56495;PMS5003;42804;55.762;38.084;2023-05-10T04:16:28;55.60;44.40;29.00
56495;PMS5003;42804;55.762;38.084;2023-05-10T04:18:56;82.00;62.40;40.60
56495;PMS5003;42804;55.762;38.084;2023-05-10T04:21:24;52.80;41.60;28.60
56495;PMS5003;42804;55.762;38.084;2023-05-10T04:23:52;55.40;42.60;28.00
56495;PMS5003;42804;55.762;38.084;2023-05-10T04:26:21;54.60;43.20;28.00
56495;PMS5003;42804;55.762;38.084;2023-05-10T04:28:49;40.00;33.40;23.00
56495;PMS5003;42804;55.762;38.084;2023-05-10T04:31:19;44.00;38.00;25.40
56495;PMS5003;42804;55.762;38.084;2023-05-10T04:33:48;38.00;33.40;25.00
56495;PMS5003;42804;55.762;38.084;2023-05-10T04:36:16;40.00;37.00;24.00
56495;PMS5003;42804;55.762;38.084;2023-05-10T04:38:44;39.75;31.25;20.75
56495;PMS5003;42804;55.762;38.084;2023-05-10T04:41:12;32.50;30.00;18.25
56495;PMS5003;42804;55.762;38.084;2023-05-10T04:43:40;41.25;35.75;23.25
56495;PMS5003;42804;55.762;38.084;2023-05-10T04:46:09;31.75;29.00;20.75
56495;PMS5003;42804;55.762;38.084;2023-05-10T04:48:38;36.25;29.25;20.25
56495;PMS5003;42804;55.762;38.084;2023-05-10T04:51:06;33.25;30.25;23.00
56495;PMS5003;42804;55.762;38.084;2023-05-10T04:53:34;30.50;28.25;20.00
56495;PMS5003;42804;55.762;38.084;2023-05-10T04:56:04;25.75;24.75;20.00
56495;PMS5003;42804;55.762;38.084;2023-05-10T04:58:32;35.25;31.00;21.75
56495;PMS5003;42804;55.762;38.084;2023-05-10T05:01:04;28.50;25.25;18.75
56495;PMS5003;42804;55.762;38.084;2023-05-10T05:03:33;24.50;23.75;16.00
56495;PMS5003;42804;55.762;38.084;2023-05-10T05:06:03;24.00;21.50;14.00
56495;PMS5003;42804;55.762;38.084;2023-05-10T05:08:31;22.50;21.75;15.25
56495;PMS5003;42804;55.762;38.084;2023-05-10T05:10:59;21.00;19.75;12.75
56495;PMS5003;42804;55.762;38.084;2023-05-10T05:13:27;22.00;21.50;13.00
56495;PMS5003;42804;55.762;38.084;2023-05-10T05:15:56;18.00;17.50;11.25
56495;PMS5003;42804;55.762;38.084;2023-05-10T05:18:24;16.75;14.25;11.00
56495;PMS5003;42804;55.762;38.084;2023-05-10T05:20:52;13.50;13.50;9.75
56495;PMS5003;42804;55.762;38.084;2023-05-10T05:23:21;11.25;11.25;7.00
56495;PMS5003;42804;55.762;38.084;2023-05-10T05:25:51;16.00;14.00;10.25
56495;PMS5003;42804;55.762;38.084;2023-05-10T05:28:20;13.50;13.50;8.00
56495;PMS5003;42804;55.762;38.084;2023-05-10T05:30:48;15.00;13.50;9.50
56495;PMS5003;42804;55.762;38.084;2023-05-10T05:33:16;11.50;11.00;7.75
56495;PMS5003;42804;55.762;38.084;2023-05-10T05:35:44;14.75;14.25;9.75
56495;PMS5003;42804;55.762;38.084;2023-05-10T05:38:17;2.75;1.75;0.25
56495;PMS5003;42804;55.762;38.084;2023-05-10T05:40:47;13.50;9.75;5.75
56495;PMS5003;42804;55.762;38.084;2023-05-10T05:43:15;14.75;14.25;9.25
56495;PMS5003;42804;55.762;38.084;2023-05-10T05:45:43;15.00;12.25;9.00
56495;PMS5003;42804;55.762;38.084;2023-05-10T05:48:12;10.50;10.00;8.00
56495;PMS5003;42804;55.762;38.084;2023-05-10T05:50:40;12.75;11.75;9.50
56495;PMS5003;42804;55.762;38.084;2023-05-10T05:53:08;12.25;11.00;8.25
56495;PMS5003;42804;55.762;38.084;2023-05-10T05:55:36;11.25;11.00;8.75
56495;PMS5003;42804;55.762;38.084;2023-05-10T05:58:06;13.25;12.75;9.50
56495;PMS5003;42804;55.762;38.084;2023-05-10T06:00:34;12.25;12.00;9.25
56495;PMS5003;42804;55.762;38.084;2023-05-10T06:03:02;14.50;12.00;9.50
56495;PMS5003;42804;55.762;38.084;2023-05-10T06:05:31;13.25;13.00;8.00
56495;PMS5003;42804;55.762;38.084;2023-05-10T06:08:00;10.25;10.00;7.50
56495;PMS5003;42804;55.762;38.084;2023-05-10T06:10:28;9.75;9.00;5.00
56495;PMS5003;42804;55.762;38.084;2023-05-10T06:12:57;11.00;10.00;6.00
56495;PMS5003;42804;55.762;38.084;2023-05-10T06:15:26;8.00;8.00;6.00
56495;PMS5003;42804;55.762;38.084;2023-05-10T06:17:54;9.00;8.50;6.00
56495;PMS5003;42804;55.762;38.084;2023-05-10T06:20:23;9.00;8.50;5.25
56495;PMS5003;42804;55.762;38.084;2023-05-10T06:22:51;7.75;7.25;5.00
56495;PMS5003;42804;55.762;38.084;2023-05-10T06:25:19;8.00;8.00;6.00
56495;PMS5003;42804;55.762;38.084;2023-05-10T06:27:47;5.50;5.00;2.75
56495;PMS5003;42804;55.762;38.084;2023-05-10T06:30:19;7.75;6.25;4.50
56495;PMS5003;42804;55.762;38.084;2023-05-10T06:32:51;8.00;6.00;4.75
56495;PMS5003;42804;55.762;38.084;2023-05-10T06:35:19;5.00;5.00;4.00
56495;PMS5003;42804;55.762;38.084;2023-05-10T06:37:47;6.00;6.00;4.25
56495;PMS5003;42804;55.762;38.084;2023-05-10T06:40:16;5.25;5.00;4.25
56495;PMS5003;42804;55.762;38.084;2023-05-10T06:42:46;9.00;5.00;3.50
56495;PMS5003;42804;55.762;38.084;2023-05-10T06:45:14;5.50;5.50;4.00
56495;PMS5003;42804;55.762;38.084;2023-05-10T06:47:43;3.50;3.50;3.00
56495;PMS5003;42804;55.762;38.084;2023-05-10T06:50:13;6.00;6.00;4.00
56495;PMS5003;42804;55.762;38.084;2023-05-10T06:52:42;4.75;4.50;3.50
56495;PMS5003;42804;55.762;38.084;2023-05-10T06:55:10;9.00;9.00;4.75
56495;PMS5003;42804;55.762;38.084;2023-05-10T06:57:39;2.00;2.00;2.00
56495;PMS5003;42804;55.762;38.084;2023-05-10T07:00:07;7.00;6.50;4.00
56495;PMS5003;42804;55.762;38.084;2023-05-10T07:02:36;6.50;6.00;4.50
56495;PMS5003;42804;55.762;38.084;2023-05-10T07:05:05;4.00;3.50;2.25
56495;PMS5003;42804;55.762;38.084;2023-05-10T07:07:34;7.00;7.00;5.00
56495;PMS5003;42804;55.762;38.084;2023-05-10T07:10:03;5.75;4.75;3.00
56495;PMS5003;42804;55.762;38.084;2023-05-10T07:12:31;5.75;5.00;4.00
56495;PMS5003;42804;55.762;38.084;2023-05-10T07:14:59;3.75;3.25;2.50
56495;PMS5003;42804;55.762;38.084;2023-05-10T07:17:28;3.00;2.00;1.50
56495;PMS5003;42804;55.762;38.084;2023-05-10T07:19:56;3.00;3.00;2.75
56495;PMS5003;42804;55.762;38.084;2023-05-10T07:22:25;4.50;4.50;3.00
56495;PMS5003;42804;55.762;38.084;2023-05-10T07:24:54;2.25;2.00;1.00
56495;PMS5003;42804;55.762;38.084;2023-05-10T07:27:22;4.25;3.75;3.00
56495;PMS5003;42804;55.762;38.084;2023-05-10T07:29:51;3.00;3.00;2.00
56495;PMS5003;42804;55.762;38.084;2023-05-10T07:32:19;3.00;3.00;2.00
56495;PMS5003;42804;55.762;38.084;2023-05-10T07:34:47;2.25;2.25;1.50
56495;PMS5003;42804;55.762;38.084;2023-05-10T07:37:15;3.25;3.00;1.00
56495;PMS5003;42804;55.762;38.084;2023-05-10T07:39:44;2.00;2.00;1.00
56495;PMS5003;42804;55.762;38.084;2023-05-10T07:42:13;2.00;2.00;1.75
56495;PMS5003;42804;55.762;38.084;2023-05-10T07:44:41;4.00;4.00;2.00
56495;PMS5003;42804;55.762;38.084;2023-05-10T07:47:10;2.00;2.00;1.00
56495;PMS5003;42804;55.762;38.084;2023-05-10T07:49:38;3.50;3.25;2.00
56495;PMS5003;42804;55.762;38.084;2023-05-10T07:52:06;3.00;3.00;2.00
56495;PMS5003;42804;55.762;38.084;2023-05-10T07:54:34;2.00;1.25;1.00
56495;PMS5003;42804;55.762;38.084;2023-05-10T07:57:02;3.75;3.00;2.75
56495;PMS5003;42804;55.762;38.084;2023-05-10T07:59:33;3.00;2.20;1.40
56495;PMS5003;42804;55.762;38.084;2023-05-10T08:02:01;3.40;3.40;2.00
56495;PMS5003;42804;55.762;38.084;2023-05-10T08:04:29;5.00;4.20;2.80
56495;PMS5003;42804;55.762;38.084;2023-05-10T08:06:58;3.75;3.25;1.75
56495;PMS5003;42804;55.762;38.084;2023-05-10T08:09:26;5.00;5.00;4.00
56495;PMS5003;42804;55.762;38.084;2023-05-10T08:11:54;1.00;1.00;0.00
56495;PMS5003;42804;55.762;38.084;2023-05-10T08:14:23;4.00;4.00;2.75
56495;PMS5003;42804;55.762;38.084;2023-05-10T08:16:52;3.00;3.00;2.00
56495;PMS5003;42804;55.762;38.084;2023-05-10T08:19:21;0.00;0.00;0.00
56495;PMS5003;42804;55.762;38.084;2023-05-10T08:21:49;4.00;3.75;2.50
56495;PMS5003;42804;55.762;38.084;2023-05-10T08:24:17;4.50;4.00;2.00
56495;PMS5003;42804;55.762;38.084;2023-05-10T08:26:46;2.00;2.00;1.25
56495;PMS5003;42804;55.762;38.084;2023-05-10T08:29:14;3.50;3.50;2.00
56495;PMS5003;42804;55.762;38.084;2023-05-10T08:31:42;3.75;3.75;3.00
56495;PMS5003;42804;55.762;38.084;2023-05-10T08:34:12;2.00;2.00;1.25
56495;PMS5003;42804;55.762;38.084;2023-05-10T08:36:40;1.75;1.75;1.00
56495;PMS5003;42804;55.762;38.084;2023-05-10T08:39:08;3.00;3.00;1.00
56495;PMS5003;42804;55.762;38.084;2023-05-10T08:41:55;3.00;3.00;2.00
56495;PMS5003;42804;55.762;38.084;2023-05-10T08:44:28;3.00;3.00;3.00
56495;PMS5003;42804;55.762;38.084;2023-05-10T08:46:57;5.75;5.75;4.00
56495;PMS5003;42804;55.762;38.084;2023-05-10T08:49:28;3.40;2.40;1.00
56495;PMS5003;42804;55.762;38.084;2023-05-10T08:51:59;4.00;4.00;2.25
56495;PMS5003;42804;55.762;38.084;2023-05-10T08:54:31;3.50;3.00;1.50
56495;PMS5003;42804;55.762;38.084;2023-05-10T08:56:59;4.00;3.25;3.00
56495;PMS5003;42804;55.762;38.084;2023-05-10T08:59:27;3.00;3.00;1.50
56495;PMS5003;42804;55.762;38.084;2023-05-10T09:01:56;4.50;2.75;2.00
56495;PMS5003;42804;55.762;38.084;2023-05-10T09:04:25;3.00;3.00;3.00
56495;PMS5003;42804;55.762;38.084;2023-05-10T09:06:55;3.50;3.00;2.00
56495;PMS5003;42804;55.762;38.084;2023-05-10T09:09:26;3.00;2.50;1.00
56495;PMS5003;42804;55.762;38.084;2023-05-10T09:11:57;4.00;3.00;3.00
56495;PMS5003;42804;55.762;38.084;2023-05-10T09:14:25;4.50;4.50;3.00
56495;PMS5003;42804;55.762;38.084;2023-05-10T09:16:54;3.00;3.00;2.00
56495;PMS5003;42804;55.762;38.084;2023-05-10T09:19:27;4.50;4.00;3.00
56495;PMS5003;42804;55.762;38.084;2023-05-10T09:21:57;3.00;2.75;2.00
56495;PMS5003;42804;55.762;38.084;2023-05-10T09:24:27;2.50;2.50;1.25
56495;PMS5003;42804;55.762;38.084;2023-05-10T09:26:55;3.00;2.75;1.50
56495;PMS5003;42804;55.762;38.084;2023-05-10T09:29:24;4.00;4.00;2.00
56495;PMS5003;42804;55.762;38.084;2023-05-10T09:31:52;3.25;2.50;2.00
56495;PMS5003;42804;55.762;38.084;2023-05-10T09:34:29;4.00;3.00;2.00
56495;PMS5003;42804;55.762;38.084;2023-05-10T09:36:59;2.25;1.75;1.00
56495;PMS5003;42804;55.762;38.084;2023-05-10T09:39:31;1.75;1.75;0.00
56495;PMS5003;42804;55.762;38.084;2023-05-10T09:42:01;3.75;3.75;2.00
56495;PMS5003;42804;55.762;38.084;2023-05-10T09:44:31;3.75;3.25;2.50
56495;PMS5003;42804;55.762;38.084;2023-05-10T09:47:00;4.00;3.25;2.00
56495;PMS5003;42804;55.762;38.084;2023-05-10T09:49:28;2.50;2.50;1.50
56495;PMS5003;42804;55.762;38.084;2023-05-10T09:52:02;2.00;2.00;1.40
56495;PMS5003;42804;55.762;38.084;2023-05-10T09:54:30;3.00;3.00;2.00
56495;PMS5003;42804;55.762;38.084;2023-05-10T09:57:00;4.25;4.00;2.00
56495;PMS5003;42804;55.762;38.084;2023-05-10T09:59:28;4.50;3.00;2.25
56495;PMS5003;42804;55.762;38.084;2023-05-10T10:01:57;3.00;3.00;1.50
56495;PMS5003;42804;55.762;38.084;2023-05-10T10:04:26;2.00;1.75;1.00
56495;PMS5003;42804;55.762;38.084;2023-05-10T10:06:59;3.25;3.25;2.50
56495;PMS5003;42804;55.762;38.084;2023-05-10T10:09:29;4.00;4.00;3.00
56495;PMS5003;42804;55.762;38.084;2023-05-10T10:12:00;3.75;3.50;2.75
56495;PMS5003;42804;55.762;38.084;2023-05-10T10:14:29;2.60;2.60;2.40
56495;PMS5003;42804;55.762;38.084;2023-05-10T10:16:58;6.00;5.00;3.50
56495;PMS5003;42804;55.762;38.084;2023-05-10T10:19:34;8.75;8.00;5.00
56495;PMS5003;42804;55.762;38.084;2023-05-10T10:29:41;4.40;4.00;3.00
56495;PMS5003;42804;55.762;38.084;2023-05-10T10:32:17;4.50;3.75;2.50
56495;PMS5003;42804;55.762;38.084;2023-05-10T10:34:47;4.50;4.50;3.00
56495;PMS5003;42804;55.762;38.084;2023-05-10T10:37:16;3.00;3.00;2.40
56495;PMS5003;42804;55.762;38.084;2023-05-10T10:39:44;5.00;4.50;3.25
56495;PMS5003;42804;55.762;38.084;2023-05-10T10:42:12;7.75;7.50;5.00
56495;PMS5003;42804;55.762;38.084;2023-05-10T10:44:42;5.50;5.25;3.25
56495;PMS5003;42804;55.762;38.084;2023-05-10T10:47:21;4.00;4.00;2.75
56495;PMS5003;42804;55.762;38.084;2023-05-10T10:50:03;3.00;3.00;1.75
56495;PMS5003;42804;55.762;38.084;2023-05-10T10:52:32;3.00;3.00;2.00
56495;PMS5003;42804;55.762;38.084;2023-05-10T10:55:01;4.50;4.00;2.00
56495;PMS5003;42804;55.762;38.084;2023-05-10T10:57:32;8.50;7.75;5.25
56495;PMS5003;42804;55.762;38.084;2023-05-10T11:02:50;4.50;4.50;3.00
56495;PMS5003;42804;55.762;38.084;2023-05-10T11:05:23;3.00;3.00;2.00
56495;PMS5003;42804;55.762;38.084;2023-05-10T11:07:52;3.00;3.00;2.00
56495;PMS5003;42804;55.762;38.084;2023-05-10T11:10:22;3.75;3.25;2.25
56495;PMS5003;42804;55.762;38.084;2023-05-10T11:12:52;3.00;3.00;1.75
56495;PMS5003;42804;55.762;38.084;2023-05-10T11:15:28;4.00;4.00;2.80
56495;PMS5003;42804;55.762;38.084;2023-05-10T11:17:57;3.25;3.25;2.75
56495;PMS5003;42804;55.762;38.084;2023-05-10T11:20:27;3.50;3.00;2.00
56495;PMS5003;42804;55.762;38.084;2023-05-10T11:23:10;4.00;4.00;2.75
56495;PMS5003;42804;55.762;38.084;2023-05-10T11:25:40;3.00;3.00;2.00
56495;PMS5003;42804;55.762;38.084;2023-05-10T11:28:09;4.00;4.00;2.40
56495;PMS5003;42804;55.762;38.084;2023-05-10T11:30:38;4.00;3.75;2.75
56495;PMS5003;42804;55.762;38.084;2023-05-10T11:33:08;4.50;3.25;2.75
56495;PMS5003;42804;55.762;38.084;2023-05-10T11:35:37;4.25;4.00;3.00
56495;PMS5003;42804;55.762;38.084;2023-05-10T11:38:09;5.00;4.00;3.00
56495;PMS5003;42804;55.762;38.084;2023-05-10T11:40:38;3.60;3.40;2.80
56495;PMS5003;42804;55.762;38.084;2023-05-10T11:43:06;4.00;4.00;3.00
56495;PMS5003;42804;55.762;38.084;2023-05-10T11:45:36;4.00;4.00;3.00
56495;PMS5003;42804;55.762;38.084;2023-05-10T11:48:04;4.00;4.00;3.00
56495;PMS5003;42804;55.762;38.084;2023-05-10T11:50:34;4.00;4.00;3.00
56495;PMS5003;42804;55.762;38.084;2023-05-10T11:53:02;6.25;6.00;4.00
56495;PMS5003;42804;55.762;38.084;2023-05-10T11:55:33;5.50;5.00;3.75
56495;PMS5003;42804;55.762;38.084;2023-05-10T11:58:01;2.25;2.25;1.50
56495;PMS5003;42804;55.762;38.084;2023-05-10T12:00:30;4.00;4.00;3.00
56495;PMS5003;42804;55.762;38.084;2023-05-10T12:03:00;4.00;3.50;2.50
56495;PMS5003;42804;55.762;38.084;2023-05-10T12:05:31;4.25;4.25;2.75
56495;PMS5003;42804;55.762;38.084;2023-05-10T12:08:14;5.00;5.00;4.00
56495;PMS5003;42804;55.762;38.084;2023-05-10T12:10:43;4.00;4.00;3.25
56495;PMS5003;42804;55.762;38.084;2023-05-10T12:13:12;3.75;3.00;3.00
56495;PMS5003;42804;55.762;38.084;2023-05-10T12:15:42;2.25;2.00;1.25
56495;PMS5003;42804;55.762;38.084;2023-05-10T12:18:10;5.00;4.00;2.50
56495;PMS5003;42804;55.762;38.084;2023-05-10T12:20:39;3.00;3.00;2.00
56495;PMS5003;42804;55.762;38.084;2023-05-10T12:23:08;5.50;5.00;3.00
56495;PMS5003;42804;55.762;38.084;2023-05-10T12:25:38;4.50;4.00;2.50
56495;PMS5003;42804;55.762;38.084;2023-05-10T12:28:08;4.50;4.50;3.00
56495;PMS5003;42804;55.762;38.084;2023-05-10T12:30:36;3.67;3.67;3.00
56495;PMS5003;42804;55.762;38.084;2023-05-10T12:33:07;5.00;5.00;4.00
56495;PMS5003;42804;55.762;38.084;2023-05-10T12:35:43;5.50;5.50;3.00
56495;PMS5003;42804;55.762;38.084;2023-05-10T12:38:28;4.75;4.00;2.75
56495;PMS5003;42804;55.762;38.084;2023-05-10T12:40:59;3.50;3.50;2.75
56495;PMS5003;42804;55.762;38.084;2023-05-10T12:43:28;4.00;3.50;2.75
56495;PMS5003;42804;55.762;38.084;2023-05-10T12:45:57;4.00;4.00;2.50
56495;PMS5003;42804;55.762;38.084;2023-05-10T12:48:25;4.75;4.50;3.25
56495;PMS5003;42804;55.762;38.084;2023-05-10T12:50:55;5.00;4.50;3.25
56495;PMS5003;42804;55.762;38.084;2023-05-10T12:53:23;5.25;5.00;4.00
56495;PMS5003;42804;55.762;38.084;2023-05-10T12:55:51;4.50;4.50;3.25
56495;PMS5003;42804;55.762;38.084;2023-05-10T12:58:21;4.25;4.25;2.50
56495;PMS5003;42804;55.762;38.084;2023-05-10T13:01:01;4.00;4.00;3.75
56495;PMS5003;42804;55.762;38.084;2023-05-10T13:03:29;3.50;3.50;2.75
56495;PMS5003;42804;55.762;38.084;2023-05-10T13:05:59;5.50;4.75;3.50
56495;PMS5003;42804;55.762;38.084;2023-05-10T13:08:27;3.50;3.50;2.00
56495;PMS5003;42804;55.762;38.084;2023-05-10T13:11:00;3.75;3.75;2.50
56495;PMS5003;42804;55.762;38.084;2023-05-10T13:13:29;4.75;4.00;2.00
56495;PMS5003;42804;55.762;38.084;2023-05-10T13:15:58;3.00;2.25;2.00
56495;PMS5003;42804;55.762;38.084;2023-05-10T13:18:26;5.25;5.25;3.50
56495;PMS5003;42804;55.762;38.084;2023-05-10T13:20:54;6.00;5.00;4.00
56495;PMS5003;42804;55.762;38.084;2023-05-10T13:23:22;4.50;4.50;3.00
56495;PMS5003;42804;55.762;38.084;2023-05-10T13:25:51;3.25;3.25;2.00
56495;PMS5003;42804;55.762;38.084;2023-05-10T13:28:19;4.00;4.00;3.00
56495;PMS5003;42804;55.762;38.084;2023-05-10T13:30:48;4.25;4.00;3.00
56495;PMS5003;42804;55.762;38.084;2023-05-10T13:33:17;5.50;4.75;3.00
56495;PMS5003;42804;55.762;38.084;2023-05-10T13:35:45;6.50;6.00;4.00
56495;PMS5003;42804;55.762;38.084;2023-05-10T13:38:13;3.00;3.00;2.75
56495;PMS5003;42804;55.762;38.084;2023-05-10T13:40:42;4.75;4.75;3.75
56495;PMS5003;42804;55.762;38.084;2023-05-10T13:43:12;4.75;4.00;3.00
56495;PMS5003;42804;55.762;38.084;2023-05-10T13:45:40;5.50;4.25;3.00
56495;PMS5003;42804;55.762;38.084;2023-05-10T13:48:10;3.25;3.00;2.00
56495;PMS5003;42804;55.762;38.084;2023-05-10T13:50:38;5.25;4.50;2.75
56495;PMS5003;42804;55.762;38.084;2023-05-10T13:53:06;5.25;5.25;4.00
56495;PMS5003;42804;55.762;38.084;2023-05-10T13:55:35;5.00;4.50;3.25
56495;PMS5003;42804;55.762;38.084;2023-05-10T13:58:07;6.00;6.00;4.00
56495;PMS5003;42804;55.762;38.084;2023-05-10T14:00:35;6.00;5.50;4.50
56495;PMS5003;42804;55.762;38.084;2023-05-10T14:03:03;5.75;5.25;3.00
56495;PMS5003;42804;55.762;38.084;2023-05-10T14:05:35;5.00;5.00;4.00
56495;PMS5003;42804;55.762;38.084;2023-05-10T14:08:03;5.50;4.25;3.00
56495;PMS5003;42804;55.762;38.084;2023-05-10T14:10:31;4.25;4.00;2.25
56495;PMS5003;42804;55.762;38.084;2023-05-10T14:12:59;5.00;5.00;3.00
56495;PMS5003;42804;55.762;38.084;2023-05-10T14:15:27;4.25;4.25;3.00
56495;PMS5003;42804;55.762;38.084;2023-05-10T14:17:56;4.00;4.00;3.00